Time;durP1;ratioP1;P1;durP2;ratioP2;P2;SDS_P1;SDS_P2;PMS_P1;PMS_P2;Temp;Humidity;BMP_temperature;BMP_pressure;BME280_temperature;BME280_humidity;BME280_pressure;Samples;Min_cycle;Max_cycle;Signal;HPM_P1;HPM_P2
2022/10/07 00:01:41;;;;;;;1.00;0.63;;;19.10;56.30;;;;;;6251004;22;20216;-80
2022/10/07 00:04:08;;;;;;;1.35;0.63;;;19.10;56.40;;;;;;6199600;22;20156;-80
2022/10/07 00:06:34;;;;;;;1.92;0.90;;;19.10;56.70;;;;;;6149615;22;20167;-80
2022/10/07 00:09:01;;;;;;;3.45;0.98;;;19.10;56.30;;;;;;6199575;22;20232;-80
2022/10/07 00:11:27;;;;;;;1.05;0.70;;;19.10;56.30;;;;;;6194340;23;20201;-80
2022/10/07 00:13:55;;;;;;;1.90;0.90;;;19.10;56.50;;;;;;6220295;23;20285;-81
2022/10/07 00:16:24;;;;;;;1.33;0.80;;;19.10;56.40;;;;;;6170154;23;20207;-81
2022/10/07 00:18:50;;;;;;;0.90;0.80;;;19.10;56.70;;;;;;6245469;23;20457;-80
2022/10/07 00:21:17;;;;;;;1.13;0.60;;;19.10;56.70;;;;;;6245810;23;20216;-80
2022/10/07 00:23:44;;;;;;;1.40;0.77;;;19.00;56.70;;;;;;6246884;22;20134;-80
2022/10/07 00:26:13;;;;;;;1.17;0.70;;;19.10;56.70;;;;;;6246973;22;20458;-79
2022/10/07 00:28:39;;;;;;;1.00;0.70;;;19.10;56.70;;;;;;6247257;22;20137;-80
2022/10/07 00:31:08;;;;;;;1.88;0.77;;;19.10;56.70;;;;;;6247058;23;20237;-80
2022/10/07 00:33:36;;;;;;;1.10;0.70;;;19.10;56.80;;;;;;6245217;23;20188;-80
2022/10/07 00:36:09;;;;;;;1.50;0.82;;;19.10;56.80;;;;;;6195196;23;20154;-80
2022/10/07 00:38:36;;;;;;;0.50;0.50;;;19.10;56.80;;;;;;6220072;23;20177;-80
2022/10/07 00:41:03;;;;;;;1.50;0.77;;;19.10;56.70;;;;;;6169363;23;20181;-81
2022/10/07 00:43:31;;;;;;;1.33;0.88;;;19.10;56.70;;;;;;6169374;23;20153;-80
2022/10/07 00:46:00;;;;;;;0.90;0.70;;;19.00;56.80;;;;;;6169142;23;20154;-80
2022/10/07 00:48:29;;;;;;;0.93;0.60;;;19.10;57.00;;;;;;6169949;23;20236;-80
2022/10/07 00:50:56;;;;;;;1.70;0.70;;;19.10;57.00;;;;;;6170879;23;20227;-80
2022/10/07 00:53:23;;;;;;;0.60;0.55;;;19.00;56.70;;;;;;6144474;23;20525;-80
2022/10/07 00:55:50;;;;;;;1.35;0.80;;;19.10;56.80;;;;;;6145113;23;20531;-79
2022/10/07 00:58:18;;;;;;;1.45;0.85;;;19.00;57.00;;;;;;6245280;23;20476;-80
2022/10/07 01:00:44;;;;;;;2.30;0.90;;;19.00;56.90;;;;;;6245149;23;20593;-80
2022/10/07 01:03:10;;;;;;;1.42;0.60;;;19.00;56.90;;;;;;6246528;23;20461;-80
2022/10/07 01:05:36;;;;;;;0.80;0.70;;;19.10;56.90;;;;;;6246201;23;20136;-80
2022/10/07 01:08:02;;;;;;;0.95;0.60;;;19.00;57.00;;;;;;6244988;23;20520;-81
2022/10/07 01:10:34;;;;;;;1.10;0.70;;;19.00;57.10;;;;;;6244555;23;20631;-80
2022/10/07 01:13:23;;;;;;;1.13;0.80;;;19.00;57.20;;;;;;6246312;22;20173;-80
2022/10/07 01:16:02;;;;;;;0.80;0.68;;;19.00;57.80;;;;;;6246343;22;20130;-79
2022/10/07 01:18:41;;;;;;;1.33;0.90;;;19.00;57.10;;;;;;6244855;23;20458;-80
2022/10/07 01:21:19;;;;;;;0.70;0.50;;;19.00;57.10;;;;;;6219464;23;20256;-79
2022/10/07 01:24:03;;;;;;;0.65;0.50;;;19.00;57.00;;;;;;6175510;23;20188;-80
2022/10/07 01:26:41;;;;;;;1.77;1.00;;;19.10;57.10;;;;;;6171860;23;20153;-80
2022/10/07 01:29:13;;;;;;;1.67;0.80;;;19.00;57.10;;;;;;6170361;23;20160;-80
2022/10/07 01:31:45;;;;;;;1.13;0.80;;;19.00;57.20;;;;;;6170327;23;20600;-79
2022/10/07 01:34:13;;;;;;;1.55;0.63;;;18.90;57.00;;;;;;6194827;23;20239;-80
2022/10/07 01:36:40;;;;;;;1.17;0.80;;;19.00;57.20;;;;;;6144151;23;20153;-80
2022/10/07 01:39:10;;;;;;;1.50;0.77;;;19.00;57.10;;;;;;6168836;23;20149;-80
2022/10/07 01:41:38;;;;;;;1.10;0.60;;;19.00;57.10;;;;;;6169477;23;20153;-79
2022/10/07 01:44:06;;;;;;;1.10;0.63;;;19.00;57.30;;;;;;6193667;23;20714;-80
2022/10/07 01:46:36;;;;;;;1.70;0.70;;;19.00;57.30;;;;;;6169299;23;20593;-80
2022/10/07 01:49:04;;;;;;;1.50;0.90;;;19.00;57.30;;;;;;6146302;23;20164;-80
2022/10/07 01:51:33;;;;;;;1.25;0.68;;;19.00;57.30;;;;;;6169167;23;20157;-79
2022/10/07 01:54:18;;;;;;;1.48;0.80;;;19.00;57.30;;;;;;6194061;23;20181;-81
2022/10/07 01:57:11;;;;;;;1.92;0.82;;;19.00;57.30;;;;;;6245863;23;20215;-79
2022/10/07 02:00:01;;;;;;;1.65;0.80;;;19.00;57.40;;;;;;6132721;23;20225;-80
2022/10/07 02:02:53;;;;;;;0.82;0.60;;;19.00;57.30;;;;;;6150886;23;20207;-80
2022/10/07 02:05:32;;;;;;;1.27;0.70;;;19.00;57.40;;;;;;6199362;23;20142;-81
2022/10/07 02:08:28;;;;;;;1.10;0.70;;;19.00;57.50;;;;;;6196258;23;20145;-80
2022/10/07 02:11:14;;;;;;;1.38;0.73;;;19.00;57.40;;;;;;6226019;23;20243;-79
2022/10/07 02:14:00;;;;;;;1.27;0.73;;;19.00;57.40;;;;;;6244456;23;20161;-80
2022/10/07 02:16:43;;;;;;;1.50;0.80;;;19.00;57.40;;;;;;6169133;23;20156;-80
2022/10/07 02:19:31;;;;;;;2.53;1.00;;;19.00;57.50;;;;;;6244537;23;20215;-81
2022/10/07 02:22:00;;;;;;;1.88;0.90;;;19.00;57.50;;;;;;6131530;23;20149;-80
2022/10/07 02:24:29;;;;;;;1.67;0.98;;;19.00;57.40;;;;;;6221875;23;20136;-80
2022/10/07 02:26:57;;;;;;;3.70;0.95;;;19.00;57.50;;;;;;6171234;23;20188;-80
2022/10/07 02:29:24;;;;;;;1.50;0.80;;;18.90;57.40;;;;;;6145780;23;20157;-80
2022/10/07 02:31:51;;;;;;;3.17;0.95;;;19.00;57.50;;;;;;6170298;23;20176;-80
2022/10/07 02:34:19;;;;;;;1.17;0.70;;;19.00;57.50;;;;;;6195424;23;20208;-80
2022/10/07 02:36:57;;;;;;;1.23;0.70;;;19.00;57.60;;;;;;6195658;23;20160;-80
2022/10/07 02:39:23;;;;;;;1.40;0.82;;;19.00;57.60;;;;;;6172457;23;20218;-79
2022/10/07 02:41:53;;;;;;;1.52;0.98;;;18.90;57.50;;;;;;6221890;23;20153;-79
2022/10/07 02:44:30;;;;;;;1.05;0.80;;;19.00;57.50;;;;;;6246389;23;20161;-80
2022/10/07 02:47:02;;;;;;;1.20;0.80;;;19.00;57.50;;;;;;6175524;23;20161;-79
2022/10/07 02:49:28;;;;;;;1.83;0.93;;;18.90;57.60;;;;;;6172375;23;20160;-80
2022/10/07 02:52:00;;;;;;;1.67;0.80;;;19.00;57.60;;;;;;6247767;22;20573;-80
2022/10/07 02:54:31;;;;;;;2.08;0.90;;;18.90;57.50;;;;;;6195257;23;20239;-80
2022/10/07 02:56:57;;;;;;;1.35;0.80;;;19.00;57.60;;;;;;6171123;23;20231;-80
2022/10/07 02:59:24;;;;;;;1.02;0.80;;;19.00;57.60;;;;;;6221495;23;20153;-80
2022/10/07 03:01:51;;;;;;;1.48;0.70;;;18.90;57.50;;;;;;6220978;23;20164;-80
2022/10/07 03:04:17;;;;;;;2.08;0.80;;;18.90;57.50;;;;;;6246140;23;20635;-79
2022/10/07 03:06:44;;;;;;;1.85;0.85;;;18.90;57.50;;;;;;6221473;23;20207;-80
2022/10/07 03:09:10;;;;;;;1.98;0.95;;;19.00;57.70;;;;;;6221388;23;20157;-79
2022/10/07 03:11:37;;;;;;;1.98;0.85;;;18.90;57.60;;;;;;6245860;23;20564;-80
2022/10/07 03:14:04;;;;;;;2.60;0.70;;;18.90;57.50;;;;;;6247411;22;20200;-80
2022/10/07 03:16:30;;;;;;;1.45;0.75;;;19.00;57.60;;;;;;6222023;23;20146;-80
2022/10/07 03:18:57;;;;;;;2.67;0.95;;;18.90;57.50;;;;;;6245999;23;20635;-79
2022/10/07 03:21:24;;;;;;;2.00;0.80;;;18.90;57.50;;;;;;6221515;23;20145;-79
2022/10/07 03:23:51;;;;;;;1.02;0.77;;;18.90;57.50;;;;;;6246745;23;20138;-80
2022/10/07 03:26:18;;;;;;;1.20;0.68;;;18.90;57.60;;;;;;6245995;23;20637;-80
2022/10/07 03:28:44;;;;;;;2.22;0.70;;;18.90;57.60;;;;;;6246602;23;20145;-80
2022/10/07 03:31:10;;;;;;;1.65;0.70;;;18.90;57.60;;;;;;6246358;23;20138;-80
2022/10/07 03:33:36;;;;;;;1.20;0.73;;;18.80;57.60;;;;;;6247036;23;20619;-79
2022/10/07 03:36:04;;;;;;;1.73;1.00;;;18.90;57.60;;;;;;6195609;23;20141;-79
2022/10/07 03:38:30;;;;;;;2.85;0.90;;;18.90;57.60;;;;;;6247165;22;20137;-81
2022/10/07 03:40:56;;;;;;;1.30;0.80;;;18.90;57.60;;;;;;6247273;22;20130;-80
2022/10/07 03:43:23;;;;;;;1.20;0.85;;;18.90;57.70;;;;;;6247320;23;20187;-79
2022/10/07 03:45:50;;;;;;;3.33;1.00;;;18.80;57.60;;;;;;6220585;23;20145;-79
2022/10/07 03:48:16;;;;;;;2.17;1.08;;;18.90;57.70;;;;;;6245629;23;20603;-80
2022/10/07 03:50:48;;;;;;;1.50;0.93;;;18.90;57.70;;;;;;6245356;23;20474;-80
2022/10/07 03:53:14;;;;;;;1.70;0.88;;;18.90;57.70;;;;;;6245600;23;20690;-80
2022/10/07 03:55:40;;;;;;;1.83;0.98;;;18.90;57.80;;;;;;6220203;23;20137;-80
2022/10/07 03:58:06;;;;;;;2.33;1.00;;;18.90;57.80;;;;;;6247035;23;20130;-80
2022/10/07 04:00:32;;;;;;;1.02;0.70;;;18.90;57.80;;;;;;6245510;23;20169;-79
2022/10/07 04:02:58;;;;;;;2.63;0.98;;;18.90;57.80;;;;;;6247164;23;20141;-80
2022/10/07 04:05:24;;;;;;;1.33;0.80;;;18.90;57.80;;;;;;6247024;23;20140;-80
2022/10/07 04:07:51;;;;;;;1.25;0.80;;;18.90;57.80;;;;;;6245673;23;20223;-80
2022/10/07 04:10:17;;;;;;;1.35;0.70;;;18.90;57.80;;;;;;6250201;22;20133;-80
2022/10/07 04:12:44;;;;;;;1.63;0.75;;;18.90;57.90;;;;;;6225437;22;20267;-80
2022/10/07 04:15:13;;;;;;;1.48;0.80;;;18.80;57.80;;;;;;6277597;22;20129;-80
2022/10/07 04:17:41;;;;;;;0.93;0.80;;;18.90;57.90;;;;;;6251373;22;20140;-80
2022/10/07 04:20:07;;;;;;;1.70;0.85;;;18.90;57.90;;;;;;6277542;22;20133;-81
2022/10/07 04:22:35;;;;;;;1.67;1.10;;;18.90;57.90;;;;;;6277520;22;20561;-81
2022/10/07 04:27:44;;;;;;;1.13;0.70;;;18.80;57.90;;;;;;6253968;22;20128;-80
2022/10/07 04:30:10;;;;;;;1.30;0.88;;;18.80;57.90;;;;;;6250528;22;20156;-80
2022/10/07 04:32:37;;;;;;;1.42;0.80;;;18.80;57.90;;;;;;6250213;22;20136;-80
2022/10/07 04:35:04;;;;;;;2.05;0.90;;;18.80;57.90;;;;;;6250631;22;20136;-81
2022/10/07 04:37:29;;;;;;;1.40;0.80;;;18.90;57.90;;;;;;6251121;22;20132;-80
2022/10/07 04:39:56;;;;;;;1.10;0.68;;;18.80;57.90;;;;;;6250405;22;20133;-80
2022/10/07 04:45:04;;;;;;;2.33;0.80;;;18.90;58.00;;;;;;6253493;22;20136;-80
2022/10/07 04:47:32;;;;;;;1.45;0.80;;;18.80;58.00;;;;;;6200604;22;20149;-80
2022/10/07 04:49:58;;;;;;;1.92;0.90;;;18.90;58.00;;;;;;6277230;22;20207;-80
2022/10/07 04:52:25;;;;;;;1.60;1.02;;;18.80;57.90;;;;;;6277229;22;20619;-79
2022/10/07 04:54:51;;;;;;;0.73;0.70;;;18.80;58.60;;;;;;6277342;22;20125;-80
2022/10/07 04:57:17;;;;;;;1.23;0.80;;;18.80;58.00;;;;;;6277314;22;20184;-80
2022/10/07 04:59:43;;;;;;;2.28;1.00;;;18.80;57.80;;;;;;6224932;22;20149;-81
2022/10/07 05:02:10;;;;;;;1.88;0.88;;;18.80;57.90;;;;;;6277118;22;20160;-80
2022/10/07 05:04:38;;;;;;;2.45;0.90;;;18.90;57.90;;;;;;6174542;22;20552;-80
2022/10/07 05:07:05;;;;;;;2.25;0.80;;;18.80;57.80;;;;;;6223919;22;20521;-79
2022/10/07 05:09:33;;;;;;;2.17;1.05;;;18.80;57.90;;;;;;6199271;22;20149;-79
2022/10/07 05:12:00;;;;;;;1.55;0.90;;;18.80;57.90;;;;;;6218758;23;20228;-80
2022/10/07 05:14:27;;;;;;;1.98;0.80;;;18.90;57.90;;;;;;6193771;23;20192;-79
2022/10/07 05:16:55;;;;;;;1.08;0.80;;;18.90;58.00;;;;;;6193960;23;20157;-79
2022/10/07 05:19:22;;;;;;;2.35;0.90;;;18.90;58.00;;;;;;6194248;23;20163;-80
2022/10/07 05:21:48;;;;;;;1.02;0.80;;;18.90;57.90;;;;;;6168718;23;20242;-80
2022/10/07 05:24:16;;;;;;;1.15;0.85;;;18.90;58.00;;;;;;6219650;23;20581;-80
2022/10/07 05:26:43;;;;;;;1.75;0.90;;;18.80;58.00;;;;;;6169042;23;20149;-79
2022/10/07 05:29:10;;;;;;;1.55;0.75;;;18.90;58.10;;;;;;6169032;23;20181;-80
2022/10/07 05:31:38;;;;;;;1.33;0.70;;;18.90;58.10;;;;;;6169232;23;20157;-79
2022/10/07 05:34:05;;;;;;;1.95;1.00;;;18.90;58.00;;;;;;6144137;23;20272;-80
2022/10/07 05:36:33;;;;;;;2.25;0.85;;;18.90;58.10;;;;;;6193569;23;20177;-80
2022/10/07 05:39:00;;;;;;;1.52;0.82;;;18.90;58.20;;;;;;6169060;23;20153;-80
2022/10/07 05:41:27;;;;;;;1.10;0.90;;;18.90;58.20;;;;;;6193619;23;20152;-80
2022/10/07 05:43:54;;;;;;;1.73;1.05;;;18.90;58.20;;;;;;6168964;23;20153;-79
2022/10/07 05:46:22;;;;;;;2.47;0.90;;;18.90;58.20;;;;;;6168393;23;20189;-80
2022/10/07 05:48:50;;;;;;;1.30;0.93;;;18.90;58.30;;;;;;6168947;23;20160;-80
2022/10/07 05:51:18;;;;;;;2.03;0.90;;;18.90;58.20;;;;;;6169324;23;20188;-79
2022/10/07 05:53:45;;;;;;;1.50;1.00;;;18.90;58.30;;;;;;6169077;23;20185;-79
2022/10/07 05:56:14;;;;;;;0.82;0.80;;;18.90;58.20;;;;;;6144693;23;20181;-80
2022/10/07 05:58:40;;;;;;;1.05;0.80;;;19.00;58.20;;;;;;6244418;23;20134;-80
2022/10/07 06:01:06;;;;;;;3.00;0.95;;;18.90;58.30;;;;;;6219592;23;20528;-80
2022/10/07 06:03:32;;;;;;;1.60;0.98;;;18.90;58.20;;;;;;6244043;23;20137;-80
2022/10/07 06:05:59;;;;;;;1.02;0.70;;;19.00;58.40;;;;;;6217681;23;20542;-80
2022/10/07 06:08:26;;;;;;;1.60;1.20;;;19.00;58.50;;;;;;6217826;23;20597;-80
2022/10/07 06:13:37;;;;;;;1.55;0.77;;;18.90;58.40;;;;;;6245726;23;20169;-80
2022/10/07 06:16:06;;;;;;;1.40;0.88;;;19.00;58.50;;;;;;6244341;23;20133;-81
2022/10/07 06:18:34;;;;;;;2.22;1.08;;;19.00;58.50;;;;;;6219410;23;20145;-79
2022/10/07 06:21:00;;;;;;;1.70;1.15;;;19.00;58.50;;;;;;6219637;23;20480;-81
2022/10/07 06:23:26;;;;;;;2.00;0.90;;;19.00;58.40;;;;;;6219205;23;20574;-81
2022/10/07 06:25:55;;;;;;;2.33;1.10;;;19.00;58.50;;;;;;6219322;23;20172;-81
2022/10/07 06:28:21;;;;;;;1.50;0.90;;;18.90;58.50;;;;;;6244848;23;20217;-81
2022/10/07 06:30:48;;;;;;;1.42;1.02;;;19.00;58.50;;;;;;6244232;23;20565;-80
2022/10/07 06:33:14;;;;;;;1.52;0.85;;;19.00;58.60;;;;;;6245379;23;20248;-80
2022/10/07 06:35:40;;;;;;;1.20;0.80;;;19.00;58.50;;;;;;6244146;23;20476;-80
2022/10/07 06:38:06;;;;;;;1.45;0.90;;;19.00;58.60;;;;;;6244498;23;20154;-80
2022/10/07 06:40:32;;;;;;;1.52;1.00;;;19.00;58.60;;;;;;6246032;23;20133;-80
2022/10/07 06:43:02;;;;;;;1.40;0.85;;;19.00;58.60;;;;;;6219486;23;20145;-81
2022/10/07 06:45:33;;;;;;;1.52;0.80;;;19.00;58.60;;;;;;6194187;23;20149;-81
2022/10/07 06:47:59;;;;;;;1.60;1.13;;;19.00;58.70;;;;;;6170162;23;20189;-80
2022/10/07 06:50:25;;;;;;;1.23;0.80;;;19.00;58.70;;;;;;6245541;23;20145;-80
2022/10/07 06:52:51;;;;;;;2.03;1.33;;;19.00;58.60;;;;;;6245316;23;20173;-80
2022/10/07 06:55:17;;;;;;;1.58;1.10;;;19.10;58.70;;;;;;6246742;23;20437;-80
2022/10/07 06:57:44;;;;;;;1.15;0.90;;;19.10;58.70;;;;;;6245289;23;20137;-80
2022/10/07 07:00:10;;;;;;;2.03;1.40;;;19.10;58.70;;;;;;6246472;22;20153;-80
2022/10/07 07:02:36;;;;;;;1.35;1.00;;;19.00;58.60;;;;;;6246883;22;20141;-80
2022/10/07 07:05:07;;;;;;;2.03;1.00;;;19.10;58.60;;;;;;6246601;23;20134;-81
2022/10/07 07:07:33;;;;;;;1.70;0.98;;;19.10;58.80;;;;;;6171256;23;20480;-80
2022/10/07 07:09:59;;;;;;;2.30;1.00;;;19.10;58.80;;;;;;6248014;23;20137;-80
2022/10/07 07:12:29;;;;;;;1.13;0.82;;;19.10;58.80;;;;;;6279511;22;20188;-80
2022/10/07 07:14:59;;;;;;;2.28;1.25;;;19.10;58.90;;;;;;6177099;22;20159;-80
2022/10/07 07:17:25;;;;;;;1.20;0.93;;;19.10;58.90;;;;;;6177465;22;20490;-80
2022/10/07 07:19:51;;;;;;;1.52;0.85;;;19.10;58.90;;;;;;6279557;22;20220;-80
2022/10/07 07:22:21;;;;;;;2.63;1.00;;;19.10;59.30;;;;;;6281263;22;20132;-80
2022/10/07 07:24:47;;;;;;;1.95;1.20;;;19.10;58.70;;;;;;6201694;22;20148;-80
2022/10/07 07:27:17;;;;;;;1.80;1.10;;;19.10;58.70;;;;;;6280426;22;20140;-81
2022/10/07 07:29:47;;;;;;;1.67;1.10;;;19.10;58.70;;;;;;6202672;22;20152;-80
2022/10/07 07:32:13;;;;;;;1.10;1.00;;;19.20;58.80;;;;;;6202685;22;20149;-80
2022/10/07 07:34:39;;;;;;;1.23;0.98;;;19.20;58.80;;;;;;6279801;22;20163;-80
2022/10/07 07:37:09;;;;;;;1.00;0.90;;;19.20;58.70;;;;;;6252676;22;20136;-80
2022/10/07 07:39:34;;;;;;;1.98;1.20;;;19.20;58.60;;;;;;6177233;22;20240;-81
2022/10/07 07:42:00;;;;;;;1.55;0.93;;;19.20;58.60;;;;;;6279592;22;20175;-81
2022/10/07 07:44:28;;;;;;;1.65;1.30;;;19.30;58.60;;;;;;6252243;22;20612;-81
2022/10/07 07:46:54;;;;;;;1.60;1.02;;;19.30;58.60;;;;;;6279435;22;20137;-80
2022/10/07 07:49:21;;;;;;;2.22;1.10;;;19.30;58.50;;;;;;6278956;22;20209;-80
2022/10/07 07:51:47;;;;;;;1.25;0.93;;;19.30;58.60;;;;;;6278691;22;20141;-80
2022/10/07 07:54:13;;;;;;;1.17;1.00;;;19.30;58.60;;;;;;6279463;22;20157;-80
2022/10/07 07:56:39;;;;;;;1.92;1.05;;;19.20;58.60;;;;;;6278810;22;20133;-80
2022/10/07 07:59:05;;;;;;;1.92;1.02;;;19.20;58.70;;;;;;6251548;22;20474;-81
2022/10/07 08:01:31;;;;;;;1.42;1.15;;;19.20;58.70;;;;;;6278126;22;20133;-80
2022/10/07 08:03:57;;;;;;;2.13;0.95;;;19.20;58.70;;;;;;6276618;22;20143;-81
2022/10/07 08:06:26;;;;;;;1.77;1.25;;;19.20;58.80;;;;;;6250209;22;20560;-80
2022/10/07 08:08:53;;;;;;;1.65;1.30;;;19.30;58.90;;;;;;6277399;22;20528;-80
2022/10/07 08:11:19;;;;;;;1.85;1.17;;;19.30;58.90;;;;;;6277061;22;20263;-80
2022/10/07 08:13:45;;;;;;;1.48;1.13;;;19.30;59.00;;;;;;6277281;22;20606;-80
2022/10/07 08:16:13;;;;;;;1.27;0.95;;;19.20;58.90;;;;;;6250200;22;20141;-80
2022/10/07 08:18:41;;;;;;;1.73;1.20;;;19.20;59.10;;;;;;6250437;22;20195;-81
2022/10/07 08:21:08;;;;;;;1.33;1.20;;;19.30;59.10;;;;;;6250513;22;20557;-80
2022/10/07 08:23:34;;;;;;;1.73;1.10;;;19.30;58.90;;;;;;6250238;22;20148;-80
2022/10/07 08:26:00;;;;;;;2.03;1.27;;;19.30;58.90;;;;;;6277821;22;20133;-81
2022/10/07 08:28:26;;;;;;;2.10;1.40;;;19.30;58.90;;;;;;6277987;22;20137;-81
2022/10/07 08:30:53;;;;;;;1.83;1.38;;;19.20;58.90;;;;;;6251174;22;20143;-79
2022/10/07 08:33:19;;;;;;;1.40;1.13;;;19.20;59.10;;;;;;6251557;22;20246;-80
2022/10/07 08:35:57;;;;;;;1.88;1.20;;;19.20;59.20;;;;;;6277794;22;20132;-80
2022/10/07 08:38:23;;;;;;;2.03;1.50;;;19.20;59.10;;;;;;6202510;22;20526;-80
2022/10/07 08:40:49;;;;;;;1.90;1.30;;;19.20;59.20;;;;;;6278261;22;20614;-80
2022/10/07 08:43:16;;;;;;;2.65;1.40;;;19.20;59.20;;;;;;6278342;22;20141;-80
2022/10/07 08:45:42;;;;;;;1.63;1.10;;;19.20;59.10;;;;;;6250958;22;20442;-80
2022/10/07 08:48:13;;;;;;;1.65;1.30;;;19.20;59.20;;;;;;6226655;22;20631;-80
2022/10/07 08:51:01;;;;;;;1.70;1.30;;;19.20;59.20;;;;;;6251721;22;20194;-80
2022/10/07 08:53:30;;;;;;;1.95;1.30;;;19.30;59.20;;;;;;6277888;22;20218;-80
2022/10/07 08:56:07;;;;;;;2.65;1.38;;;19.20;59.20;;;;;;6277879;22;20218;-80
2022/10/07 08:58:44;;;;;;;1.55;1.35;;;19.20;59.30;;;;;;6279335;22;20137;-80
2022/10/07 09:01:35;;;;;;;1.77;1.40;;;19.20;59.40;;;;;;6250951;22;20136;-80
2022/10/07 09:04:18;;;;;;;2.40;1.52;;;19.20;59.50;;;;;;6277417;22;20137;-80
2022/10/07 09:06:52;;;;;;;1.83;1.23;;;19.20;59.40;;;;;;6277150;22;20152;-79
2022/10/07 09:09:22;;;;;;;1.20;1.08;;;19.20;59.40;;;;;;6277415;22;20186;-80
2022/10/07 09:11:48;;;;;;;2.00;1.50;;;19.20;59.40;;;;;;6249820;22;20674;-81
2022/10/07 09:14:36;;;;;;;1.55;1.10;;;19.20;59.30;;;;;;6250251;22;20261;-81
2022/10/07 09:17:14;;;;;;;1.73;1.40;;;19.20;59.30;;;;;;6250795;22;20151;-80
2022/10/07 09:19:44;;;;;;;2.47;1.30;;;19.20;59.40;;;;;;6250870;22;20139;-80
2022/10/07 09:22:22;;;;;;;1.25;1.10;;;19.20;59.50;;;;;;6277454;22;20148;-80
2022/10/07 09:24:50;;;;;;;2.17;1.50;;;19.30;59.50;;;;;;6250503;22;20187;-79
2022/10/07 09:27:18;;;;;;;1.48;1.13;;;19.20;59.50;;;;;;6277065;22;20141;-80
2022/10/07 09:29:46;;;;;;;2.47;1.50;;;19.30;59.60;;;;;;6250521;22;20153;-80
2022/10/07 09:32:13;;;;;;;1.95;1.50;;;19.30;59.50;;;;;;6250205;22;20495;-80
2022/10/07 09:34:39;;;;;;;1.23;1.10;;;19.30;59.60;;;;;;6276980;22;20164;-80
2022/10/07 09:37:21;;;;;;;1.75;1.30;;;19.40;59.60;;;;;;6250193;22;20472;-80
2022/10/07 09:39:49;;;;;;;1.50;1.40;;;19.40;59.40;;;;;;6277264;22;20161;-80
2022/10/07 09:42:30;;;;;;;2.15;1.40;;;19.40;59.60;;;;;;6276961;22;20136;-81
2022/10/07 09:44:58;;;;;;;2.00;1.55;;;19.30;59.70;;;;;;6250235;22;20136;-80
2022/10/07 09:47:25;;;;;;;1.67;1.40;;;19.30;59.70;;;;;;6277015;22;20143;-80
2022/10/07 09:49:53;;;;;;;1.58;1.20;;;19.30;59.80;;;;;;6249851;22;20162;-81
2022/10/07 09:52:22;;;;;;;1.85;1.42;;;19.40;59.90;;;;;;6277137;22;20133;-80
2022/10/07 09:54:50;;;;;;;1.92;1.50;;;19.40;59.80;;;;;;6277481;22;20164;-80
2022/10/07 09:57:26;;;;;;;1.80;1.50;;;19.40;60.00;;;;;;6250662;22;20131;-80
2022/10/07 10:00:12;;;;;;;1.83;1.50;;;19.40;60.00;;;;;;6277925;22;20580;-81
2022/10/07 10:02:39;;;;;;;1.75;1.65;;;19.40;60.10;;;;;;6276815;22;20197;-81
2022/10/07 10:05:24;;;;;;;1.48;1.33;;;19.30;60.00;;;;;;6252976;22;20243;-80
2022/10/07 10:07:56;;;;;;;1.98;1.60;;;19.30;60.30;;;;;;6177251;22;20179;-81
2022/10/07 10:10:27;;;;;;;1.77;1.38;;;19.30;60.60;;;;;;6276520;22;20193;-80
2022/10/07 10:12:54;;;;;;;1.60;1.50;;;19.30;60.50;;;;;;6249948;22;20176;-81
2022/10/07 10:15:41;;;;;;;1.55;1.40;;;19.40;60.40;;;;;;6249638;22;20148;-81
2022/10/07 10:18:41;;;;;;;1.95;1.65;;;19.40;60.40;;;;;;6229393;22;20148;-80
2022/10/07 10:21:18;;;;;;;1.60;1.40;;;19.40;60.50;;;;;;6276735;22;20132;-81
2022/10/07 10:23:47;;;;;;;1.85;1.40;;;19.40;60.40;;;;;;6224660;22;20231;-80
2022/10/07 10:26:41;;;;;;;1.80;1.35;;;19.40;60.50;;;;;;6276755;22;20132;-81
2022/10/07 10:29:24;;;;;;;1.50;1.40;;;19.40;60.40;;;;;;6232681;22;20226;-81
2022/10/07 10:32:20;;;;;;;1.80;1.50;;;19.40;60.60;;;;;;6277115;22;20514;-81
2022/10/07 10:35:01;;;;;;;1.27;1.17;;;19.40;60.50;;;;;;6256788;22;20171;-80
2022/10/07 10:37:55;;;;;;;1.80;1.40;;;19.40;60.80;;;;;;6277162;22;20137;-80
2022/10/07 10:40:47;;;;;;;1.70;1.50;;;19.40;60.70;;;;;;6277323;22;20155;-81
2022/10/07 10:43:25;;;;;;;1.92;1.40;;;19.40;60.70;;;;;;6254776;22;20147;-80
2022/10/07 10:46:21;;;;;;;1.48;1.38;;;19.40;61.00;;;;;;6251715;22;20565;-81
2022/10/07 10:49:09;;;;;;;1.50;1.35;;;19.40;60.80;;;;;;6225646;22;20483;-80
2022/10/07 10:51:44;;;;;;;1.65;1.55;;;19.40;61.00;;;;;;6201394;22;20157;-81
2022/10/07 10:54:39;;;;;;;1.90;1.67;;;19.40;60.90;;;;;;6278964;22;20555;-80
2022/10/07 10:57:32;;;;;;;1.77;1.60;;;19.40;61.20;;;;;;6278982;22;20195;-81
2022/10/07 11:00:12;;;;;;;2.20;1.73;;;19.30;62.00;;;;;;6202292;22;20172;-81
2022/10/07 11:02:58;;;;;;;2.45;1.77;;;19.30;61.30;;;;;;6251965;22;20135;-82
2022/10/07 11:05:41;;;;;;;2.17;1.52;;;19.30;61.50;;;;;;6254155;22;20456;-80
2022/10/07 11:08:18;;;;;;;1.67;1.52;;;19.40;61.50;;;;;;6279962;22;20124;-80
2022/10/07 11:11:07;;;;;;;2.08;1.52;;;19.40;61.30;;;;;;6196320;23;20185;-80
2022/10/07 11:13:39;;;;;;;1.70;1.50;;;19.40;61.60;;;;;;6246868;23;20170;-80
2022/10/07 11:16:16;;;;;;;2.75;1.90;;;19.40;61.60;;;;;;6147753;23;20185;-79
2022/10/07 11:18:54;;;;;;;1.60;1.35;;;19.30;61.60;;;;;;6174669;23;20232;-81
2022/10/07 11:21:32;;;;;;;1.90;1.52;;;19.40;61.80;;;;;;6172962;23;20153;-81
2022/10/07 11:24:09;;;;;;;1.90;1.70;;;19.40;62.00;;;;;;6221274;23;20141;-81
2022/10/07 11:26:49;;;;;;;1.85;1.67;;;19.40;61.70;;;;;;6199325;23;20218;-81
2022/10/07 11:29:35;;;;;;;2.00;1.77;;;19.40;61.80;;;;;;6129716;23;20154;-80
2022/10/07 11:32:09;;;;;;;2.00;1.70;;;19.40;61.80;;;;;;6249591;22;20137;-80
2022/10/07 11:34:55;;;;;;;1.60;1.50;;;19.40;61.80;;;;;;6172569;23;20197;-80
2022/10/07 12:01:38;;;;;;;1.90;1.48;;;19.50;62.20;;;;;;6247301;23;20168;-80
2022/10/07 12:04:24;;;;;;;1.88;1.45;;;19.40;62.50;;;;;;6200053;23;20647;-80
2022/10/07 12:07:21;;;;;;;1.50;1.40;;;19.50;62.60;;;;;;6222326;23;20154;-80
2022/10/07 12:10:22;;;;;;;1.95;1.70;;;19.50;62.30;;;;;;6221695;23;20236;-79
2022/10/07 12:12:50;;;;;;;2.47;1.50;;;19.50;62.50;;;;;;6248586;23;20149;-81
2022/10/07 12:15:37;;;;;;;2.75;1.60;;;19.50;62.70;;;;;;6248108;23;20461;-80
2022/10/07 12:18:24;;;;;;;2.20;1.80;;;19.50;62.70;;;;;;6248448;23;20136;-80
2022/10/07 12:21:03;;;;;;;2.05;1.80;;;19.40;62.70;;;;;;6247672;23;20648;-81
2022/10/07 12:23:37;;;;;;;1.85;1.70;;;19.50;62.90;;;;;;6195694;23;20496;-80
2022/10/07 12:26:21;;;;;;;2.28;1.70;;;19.50;62.90;;;;;;6171462;23;20164;-80
2022/10/07 12:28:50;;;;;;;1.88;1.67;;;19.50;62.90;;;;;;6153475;23;20156;-80
2022/10/07 12:31:45;;;;;;;1.70;1.60;;;19.40;62.70;;;;;;6170535;23;20484;-80
2022/10/07 12:34:21;;;;;;;2.10;1.70;;;19.40;63.00;;;;;;6153362;23;20189;-80
2022/10/07 12:36:48;;;;;;;1.90;1.45;;;19.40;63.20;;;;;;6248628;23;20199;-80
2022/10/07 12:39:34;;;;;;;1.58;1.48;;;19.30;63.30;;;;;;6198055;23;20149;-80
2022/10/07 12:42:05;;;;;;;1.88;1.70;;;19.40;63.30;;;;;;6248621;23;20204;-80
2022/10/07 12:44:35;;;;;;;1.90;1.80;;;19.40;63.20;;;;;;6149199;23;20204;-80
2022/10/07 12:47:09;;;;;;;1.40;1.30;;;19.40;63.20;;;;;;6172365;23;20236;-79
2022/10/07 12:49:47;;;;;;;1.60;1.50;;;19.40;63.20;;;;;;6248610;22;20141;-80
2022/10/07 12:52:18;;;;;;;1.77;1.50;;;19.40;63.10;;;;;;6248339;22;20137;-80
2022/10/07 12:54:52;;;;;;;2.72;2.08;;;19.40;63.10;;;;;;6172872;23;21039;-80
2022/10/07 12:57:30;;;;;;;1.60;1.50;;;19.40;63.20;;;;;;6249481;22;20156;-80
2022/10/07 13:00:16;;;;;;;1.60;1.50;;;19.40;63.30;;;;;;6200019;23;20157;-81
2022/10/07 13:03:18;;;;;;;1.73;1.52;;;19.50;63.00;;;;;;6201869;23;20149;-80
2022/10/07 13:06:24;;;;;;;2.03;1.70;;;19.50;63.00;;;;;;6247069;23;20195;-80
2022/10/07 13:09:07;;;;;;;3.10;1.77;;;19.50;63.10;;;;;;6248271;23;20142;-80
2022/10/07 13:11:59;;;;;;;1.90;1.73;;;19.40;63.20;;;;;;6247363;23;20203;-81
2022/10/07 13:14:33;;;;;;;1.55;1.45;;;19.40;63.20;;;;;;6247698;23;20181;-80
2022/10/07 13:17:34;;;;;;;2.00;1.80;;;19.40;63.20;;;;;;6247737;23;20129;-80
2022/10/07 13:20:24;;;;;;;2.30;1.80;;;19.50;63.10;;;;;;6218936;23;20153;-81
2022/10/07 13:22:50;;;;;;;1.83;1.67;;;19.50;63.00;;;;;;6245311;23;20137;-80
2022/10/07 13:25:19;;;;;;;1.58;1.48;;;19.50;62.90;;;;;;6244302;23;20142;-81
2022/10/07 13:28:17;;;;;;;2.00;1.80;;;19.50;62.80;;;;;;6220554;23;20145;-80
2022/10/07 13:30:44;;;;;;;1.50;1.40;;;19.60;62.80;;;;;;6235284;23;20210;-80
2022/10/07 13:33:15;;;;;;;1.95;1.75;;;19.50;62.70;;;;;;6248810;22;20168;-81
2022/10/07 13:35:41;;;;;;;2.80;1.50;;;19.60;62.80;;;;;;6247083;23;20126;-80
2022/10/07 13:38:21;;;;;;;1.73;1.63;;;19.50;62.70;;;;;;6245481;23;20188;-80
2022/10/07 13:41:06;;;;;;;1.92;1.70;;;19.50;62.70;;;;;;6248582;22;20195;-81
2022/10/07 13:43:32;;;;;;;1.58;1.48;;;19.50;62.60;;;;;;6247382;22;20140;-81
2022/10/07 13:46:00;;;;;;;2.25;1.80;;;19.60;62.50;;;;;;6250067;23;20133;-80